Terminal Aerodrome Forecast
Issued by NWS

Home | Current Version | Previous Version | Text Only | Print | Product List | Glossary On
Versions: 1 2 3 4 5 6 7 8 9 10 11 12 13 14 15 16 17 18 19 20 21 22 23 24
943
FTUS45 KGGW 271142
TAFOLF
TAF
KOLF 271142Z 2712/2812 07008KT P6SM BKN090
     FM271600 08010KT P6SM SCT080
     FM280300 06006KT P6SM SCT120
     FM280400 07006KT P6SM BKN110=

USA.gov is the U.S. government's official web portal to all federal, state and local government web resources and services.